Time;durP1;ratioP1;P1;durP2;ratioP2;P2;SDS_P1;SDS_P2;PMS_P1;PMS_P2;Temp;Humidity;BMP_temperature;BMP_pressure;BME280_temperature;BME280_humidity;BME280_pressure;Samples;Min_cycle;Max_cycle;Signal;HPM_P1;HPM_P2
2024/04/12 04:42:00;;;;;;;5.87;1.55;;;;;;;20.97;53.10;102463.60;2425898;72;24799;-75
2024/04/12 04:45:07;;;;;;;4.67;1.70;;;;;;;20.98;52.67;102467.13;2344517;75;50327;-76
2024/04/12 04:48:10;;;;;;;4.58;1.92;;;;;;;21.01;52.86;102470.34;2312026;76;22473;-75
2024/04/12 04:51:11;;;;;;;5.42;1.40;;;;;;;21.05;52.82;102473.09;2286870;76;22407;-76
2024/04/12 04:54:14;;;;;;;14.20;2.08;;;;;;;21.09;52.73;102465.06;2311803;76;52637;-77
2024/04/12 04:57:16;;;;;;;4.65;1.40;;;;;;;21.15;52.70;102470.82;2333780;75;51422;-77
2024/04/12 05:00:21;;;;;;;5.95;2.05;;;;;;;21.19;52.51;102468.14;2308785;76;51347;-76
2024/04/12 05:03:22;;;;;;;3.20;1.27;;;;;;;21.21;52.33;102462.95;2337337;76;22377;-76
2024/04/12 05:06:27;;;;;;;14.20;3.17;;;;;;;21.25;52.32;102458.11;2333521;75;52134;-76
2024/04/12 05:09:29;;;;;;;7.75;2.00;;;;;;;21.29;53.35;102452.73;2334452;75;22403;-76
2024/04/12 05:12:31;;;;;;;8.08;1.77;;;;;;;21.33;53.09;102456.83;2312062;76;50523;-76
2024/04/12 05:15:54;;;;;;;8.20;2.02;;;;;;;21.36;53.03;102448.93;2280649;75;50608;-76
2024/04/12 05:18:37;;;;;;;10.32;2.00;;;;;;;21.37;53.11;102436.64;2325440;75;22374;-76
2024/04/12 05:21:42;;;;;;;29.02;3.30;;;;;;;21.40;52.97;102441.77;2312095;76;50662;-76
2024/04/12 05:24:45;;;;;;;42.95;4.83;;;;;;;21.41;53.15;102428.62;2312639;76;50369;-76
2024/04/12 05:27:48;;;;;;;15.00;2.77;;;;;;;21.45;53.36;102433.19;2277733;76;50874;-76
2024/04/12 05:30:50;;;;;;;30.65;3.22;;;;;;;21.51;53.39;102444.18;2323175;76;51460;-75
2024/04/12 05:33:55;;;;;;;25.25;2.65;;;;;;;21.53;53.58;102435.45;2276030;76;50009;-75
2024/04/12 05:37:04;;;;;;;22.10;2.75;;;;;;;21.56;53.77;102429.41;2285402;75;22986;-77
2024/04/12 05:40:05;;;;;;;16.23;2.90;;;;;;;21.58;53.81;102432.76;2290857;77;22314;-77
2024/04/12 05:43:16;;;;;;;21.85;2.70;;;;;;;21.63;53.75;102433.13;2281665;77;51100;-79
2024/04/12 05:46:22;;;;;;;17.90;3.20;;;;;;;21.63;53.84;102431.30;2284478;77;50722;-78
2024/04/12 05:49:22;;;;;;;16.35;3.12;;;;;;;21.63;53.79;102439.38;2324342;75;22642;-78
2024/04/12 05:52:25;;;;;;;18.12;3.58;;;;;;;21.63;53.78;102446.59;2308503;75;49484;-78
2024/04/12 05:55:29;;;;;;;18.48;3.08;;;;;;;21.62;54.50;102436.84;2334303;75;50786;-78
2024/04/12 05:58:31;;;;;;;28.62;3.98;;;;;;;21.63;54.92;102429.08;2333732;75;22366;-77
2024/04/12 06:01:33;;;;;;;20.27;3.35;;;;;;;21.63;55.36;102426.39;2333598;75;50611;-77
2024/04/12 06:04:36;;;;;;;17.40;3.08;;;;;;;21.64;55.39;102436.18;2353606;75;50575;-75
2024/04/12 06:07:38;;;;;;;19.65;3.80;;;;;;;21.65;55.51;102425.73;2332622;75;50244;-75
2024/04/12 06:10:44;;;;;;;20.85;2.60;;;;;;;21.66;55.25;102426.09;2332929;75;50009;-79
2024/04/12 06:13:47;;;;;;;18.12;2.85;;;;;;;21.66;55.09;102426.09;2353528;75;22485;-76
2024/04/12 06:17:00;;;;;;;17.90;4.22;;;;;;;21.66;54.76;102430.14;2332971;75;22380;-77
2024/04/12 06:20:03;;;;;;;19.62;4.45;;;;;;;21.66;54.81;102430.14;2353191;75;22459;-77
2024/04/12 06:23:09;;;;;;;16.23;4.95;;;;;;;21.65;55.37;102421.69;2338759;75;51460;-76
2024/04/12 06:26:11;;;;;;;21.52;4.58;;;;;;;21.66;55.58;102420.20;2312055;77;51550;-76
2024/04/12 06:29:16;;;;;;;12.75;4.10;;;;;;;21.65;55.44;102420.34;2323119;75;51335;-76
2024/04/12 06:32:18;;;;;;;18.67;3.92;;;;;;;21.70;55.27;102426.09;2338345;75;22884;-76
2024/04/12 06:35:28;;;;;;;21.02;4.62;;;;;;;21.68;55.23;102426.28;2329667;75;51457;-77
2024/04/12 06:38:29;;;;;;;18.87;3.90;;;;;;;21.67;55.19;102429.12;2312350;76;23209;-76
2024/04/12 06:41:33;;;;;;;14.78;4.03;;;;;;;21.67;55.26;102431.81;2287793;77;50041;-76
2024/04/12 06:44:35;;;;;;;21.62;4.10;;;;;;;21.67;54.93;102427.77;2302589;76;51613;-76
2024/04/12 06:47:41;;;;;;;21.97;4.95;;;;;;;21.68;55.02;102424.06;2300620;77;50184;-76
2024/04/12 06:50:42;;;;;;;20.35;3.70;;;;;;;21.67;54.92;102425.08;2301812;76;22452;-76
2024/04/12 06:53:45;;;;;;;21.60;4.35;;;;;;;21.66;54.81;102436.36;2302154;76;50369;-77
2024/04/12 06:56:48;;;;;;;16.85;4.15;;;;;;;21.64;55.13;102432.98;2284732;77;51099;-76
2024/04/12 06:59:53;;;;;;;16.65;3.37;;;;;;;21.67;55.17;102438.55;2302218;76;51502;-77
2024/04/12 07:02:59;;;;;;;14.63;3.45;;;;;;;21.66;55.27;102439.05;2302376;77;50894;-77
2024/04/12 07:06:01;;;;;;;15.72;3.75;;;;;;;21.67;55.34;102447.47;2283237;77;23491;-77
2024/04/12 07:09:08;;;;;;;15.58;3.80;;;;;;;21.70;55.28;102446.30;2303250;76;50585;-78
2024/04/12 07:12:08;;;;;;;15.50;3.45;;;;;;;21.69;55.17;102455.41;2302576;77;22290;-78
2024/04/12 07:15:10;;;;;;;14.33;3.47;;;;;;;21.68;55.01;102456.39;2283678;77;50252;-78
2024/04/12 07:18:14;;;;;;;18.17;3.40;;;;;;;21.68;54.76;102458.61;2303089;77;49862;-78
2024/04/12 07:21:16;;;;;;;13.65;3.50;;;;;;;21.67;54.54;102462.80;2286206;77;49491;-78
2024/04/12 07:24:19;;;;;;;12.58;3.30;;;;;;;21.67;54.32;102458.75;2302394;77;50699;-76
2024/04/12 07:27:28;;;;;;;19.12;3.12;;;;;;;21.67;54.21;102457.41;2302048;76;50231;-76
2024/04/12 07:30:30;;;;;;;14.87;3.30;;;;;;;21.65;54.65;102459.41;2283800;77;22310;-77
2024/04/12 07:33:35;;;;;;;14.60;3.12;;;;;;;21.65;54.83;102458.90;2302697;76;51427;-78
2024/04/12 07:36:39;;;;;;;13.08;2.80;;;;;;;21.64;54.92;102458.57;2302590;76;51557;-78
2024/04/12 07:39:41;;;;;;;14.45;2.85;;;;;;;21.67;54.88;102462.80;2302657;77;51437;-76
2024/04/12 07:42:46;;;;;;;12.88;2.87;;;;;;;21.68;54.95;102444.27;2260018;77;51499;-76
2024/04/12 07:45:48;;;;;;;12.07;2.90;;;;;;;21.68;54.99;102438.88;2279117;76;51439;-76
2024/04/12 07:48:51;;;;;;;12.60;2.30;;;;;;;21.69;55.02;102435.20;2248782;78;50206;-77
2024/04/12 07:51:54;;;;;;;10.50;2.90;;;;;;;21.70;55.03;102430.14;2279176;77;51425;-77
2024/04/12 07:55:01;;;;;;;13.60;2.40;;;;;;;21.68;55.07;102422.23;2248545;78;49978;-76
2024/04/12 07:58:01;;;;;;;11.60;3.00;;;;;;;21.68;54.98;102423.58;2279018;77;22351;-76
2024/04/12 08:01:09;;;;;;;14.80;2.90;;;;;;;21.70;54.89;102435.53;2279324;78;51475;-77
2024/04/12 08:04:23;;;;;;;15.30;2.87;;;;;;;21.71;54.93;102441.27;2275576;77;50687;-76
2024/04/12 08:07:29;;;;;;;9.83;2.60;;;;;;;21.70;54.93;102436.87;2283765;78;51456;-77
2024/04/12 08:10:30;;;;;;;9.38;2.45;;;;;;;21.70;54.83;102436.87;2284035;77;22409;-77
2024/04/12 08:13:37;;;;;;;11.12;2.45;;;;;;;21.70;54.83;102431.48;2276211;78;50391;-77
2024/04/12 08:16:36;;;;;;;9.90;2.58;;;;;;;21.71;54.80;102430.50;2283364;78;22713;-77
2024/04/12 08:19:39;;;;;;;8.68;2.58;;;;;;;21.71;54.73;102439.42;2250940;78;51251;-77
2024/04/12 08:22:46;;;;;;;13.98;3.10;;;;;;;21.70;54.75;102437.71;2226860;78;50662;-77
2024/04/12 08:25:48;;;;;;;9.85;2.67;;;;;;;21.69;54.73;102427.95;2282136;78;23505;-78
2024/04/12 08:28:51;;;;;;;11.57;2.67;;;;;;;21.70;54.70;102427.44;2276212;78;50723;-76
2024/04/12 08:35:19;;;;;;;10.75;2.72;;;;;;;21.70;54.68;102424.24;2283839;78;22437;-77
2024/04/12 08:38:21;;;;;;;8.95;2.83;;;;;;;21.71;54.61;102426.45;2251716;78;22494;-76
2024/04/12 08:41:23;;;;;;;11.97;2.92;;;;;;;21.71;54.59;102428.64;2286993;76;22973;-77
2024/04/12 08:44:31;;;;;;;7.92;2.58;;;;;;;21.72;54.52;102424.93;2278705;77;51007;-77
2024/04/12 08:47:36;;;;;;;12.65;2.30;;;;;;;21.71;54.53;102421.07;2310108;77;50650;-77
2024/04/12 08:50:39;;;;;;;10.55;2.42;;;;;;;21.72;54.50;102424.09;2310352;77;22457;-77
2024/04/12 08:53:44;;;;;;;7.58;2.25;;;;;;;21.72;54.50;102428.13;2310214;77;49938;-77
2024/04/12 08:56:46;;;;;;;8.63;2.40;;;;;;;21.72;54.45;102425.44;2309733;77;22914;-77
2024/04/12 08:59:49;;;;;;;8.13;2.35;;;;;;;21.72;54.43;102418.70;2253928;77;51601;-76
2024/04/12 09:02:58;;;;;;;7.45;2.40;;;;;;;21.71;54.44;102399.52;2309803;77;49918;-76
2024/04/12 09:05:58;;;;;;;6.60;2.30;;;;;;;21.72;54.38;102403.89;2309143;77;22528;-77
2024/04/12 09:09:00;;;;;;;5.67;2.00;;;;;;;21.72;54.41;102403.89;2278743;77;52758;-77
2024/04/12 09:12:04;;;;;;;9.48;2.27;;;;;;;21.70;54.37;102410.77;2278851;77;51347;-77
2024/04/12 09:15:13;;;;;;;5.35;2.12;;;;;;;21.72;54.27;102407.42;2253953;77;50284;-76
2024/04/12 09:18:19;;;;;;;5.70;2.15;;;;;;;21.70;54.37;102402.69;2254024;77;23322;-77
2024/04/12 09:21:24;;;;;;;7.95;2.12;;;;;;;21.71;54.30;102404.39;2309987;76;23318;-77
2024/04/12 09:24:39;;;;;;;8.90;2.40;;;;;;;21.72;54.33;102407.92;2254689;77;52282;-77
2024/04/12 09:27:43;;;;;;;7.37;2.35;;;;;;;21.72;54.29;102402.54;2279273;77;22386;-77
2024/04/12 09:37:29;;;;;;;7.70;2.67;;;;;;;21.71;54.22;102401.70;2310223;77;22473;-79
2024/04/12 09:40:34;;;;;;;5.85;2.22;;;;;;;21.73;54.14;102393.44;2310187;77;50180;-78
2024/04/12 09:43:46;;;;;;;6.70;2.17;;;;;;;21.71;54.17;102392.78;2310236;76;51535;-78
2024/04/12 10:37:23;;;;;;;6.70;2.80;;;;;;;21.72;54.15;102390.41;2308020;77;22378;-77
2024/04/12 10:40:23;;;;;;;7.22;2.47;;;;;;;21.65;53.89;102348.45;2284071;77;22294;-77
2024/04/12 10:43:25;;;;;;;9.35;2.87;;;;;;;21.66;54.02;102350.66;2287977;76;50977;-75
2024/04/12 10:46:28;;;;;;;9.18;2.55;;;;;;;21.67;53.97;102346.95;2330256;75;52209;-75
2024/04/12 10:49:30;;;;;;;7.75;2.67;;;;;;;21.67;54.09;102338.87;2325373;76;51485;-76
2024/04/12 10:52:32;;;;;;;13.20;2.65;;;;;;;21.68;53.92;102337.38;2305936;76;52416;-73
2024/04/12 10:55:35;;;;;;;9.58;2.85;;;;;;;21.67;53.88;102333.48;2306068;76;52116;-75
2024/04/12 10:58:51;;;;;;;10.23;2.75;;;;;;;21.67;53.91;102334.31;2311627;77;51461;-74
2024/04/12 11:01:47;;;;;;;7.35;2.77;;;;;;;21.67;53.90;102331.63;2309733;77;22399;-75
2024/04/12 11:08:12;;;;;;;7.83;2.72;;;;;;;21.69;53.83;102322.05;2160702;81;22496;-76
2024/04/12 11:11:19;;;;;;;7.45;2.67;;;;;;;21.67;53.78;102306.03;2160596;82;51519;-75
2024/04/12 11:14:27;;;;;;;7.80;2.65;;;;;;;21.69;53.73;102296.45;2160678;82;22397;-75
2024/04/12 11:31:14;;;;;;;4.92;2.37;;;;;;;21.70;53.31;102291.39;2160677;82;22616;-76
2024/04/12 11:34:14;;;;;;;8.10;2.72;;;;;;;21.70;53.26;102283.30;2159724;82;22573;-74
2024/04/12 11:37:15;;;;;;;7.15;2.98;;;;;;;21.69;53.29;102282.98;2167037;82;23323;-75
2024/04/12 11:40:17;;;;;;;6.50;3.17;;;;;;;21.71;53.25;102287.70;2290271;77;50467;-75
2024/04/12 11:43:20;;;;;;;6.50;3.10;;;;;;;21.70;53.23;102287.34;2276094;76;49482;-75
2024/04/12 11:46:23;;;;;;;7.65;2.62;;;;;;;21.70;53.23;102288.70;2296792;77;50662;-75
2024/04/12 11:49:26;;;;;;;6.10;3.08;;;;;;;21.69;53.22;102289.72;2301084;77;52476;-76
2024/04/12 11:52:28;;;;;;;4.92;2.60;;;;;;;21.69;53.24;102283.81;2301231;77;50236;-75
2024/04/12 11:55:30;;;;;;;4.95;2.60;;;;;;;21.70;53.22;102281.95;2296754;76;51452;-76
2024/04/12 11:58:33;;;;;;;6.08;2.60;;;;;;;21.70;53.07;102270.67;2301101;76;49560;-76
2024/04/12 12:01:37;;;;;;;5.40;2.55;;;;;;;21.70;53.00;102267.14;2296747;76;51510;-75
2024/04/12 12:04:39;;;;;;;5.28;2.70;;;;;;;21.72;52.75;102263.78;2297113;77;50272;-76
2024/04/12 12:07:44;;;;;;;7.55;2.77;;;;;;;21.73;52.86;102269.50;2301008;76;49469;-76
2024/04/12 12:10:46;;;;;;;5.35;2.72;;;;;;;21.72;52.84;102254.36;2297168;77;22333;-76
2024/04/12 12:13:48;;;;;;;7.70;2.80;;;;;;;21.75;52.68;102247.28;2296950;76;49883;-75
2024/04/12 12:16:51;;;;;;;6.75;2.90;;;;;;;21.75;52.60;102233.30;2301209;76;50293;-75
2024/04/12 12:19:53;;;;;;;13.50;3.00;;;;;;;21.76;52.49;102234.17;2313161;76;51424;-78
2024/04/12 12:22:55;;;;;;;6.00;2.87;;;;;;;21.78;52.68;102230.78;2268837;76;49595;-78
2024/04/12 12:25:58;;;;;;;8.23;2.80;;;;;;;21.79;52.80;102224.41;2291373;76;50347;-76
2024/04/12 12:29:01;;;;;;;8.08;2.98;;;;;;;21.79;52.83;102221.70;2304112;75;51475;-77
2024/04/12 12:32:04;;;;;;;10.00;3.05;;;;;;;21.79;52.87;102219.02;2268758;76;50749;-76
2024/04/12 12:35:06;;;;;;;9.63;2.95;;;;;;;21.84;52.81;102209.92;2278017;76;50084;-74
2024/04/12 12:38:11;;;;;;;11.60;3.70;;;;;;;21.84;52.79;102195.11;2290635;76;50146;-75
2024/04/12 12:41:13;;;;;;;10.65;3.25;;;;;;;21.86;52.83;102205.22;2296824;76;22388;-80
2024/04/12 12:44:22;;;;;;;12.28;3.47;;;;;;;21.86;52.90;102193.09;2308351;75;50624;-76
2024/04/12 12:47:22;;;;;;;8.78;2.77;;;;;;;21.89;52.80;102187.36;2294394;74;22473;-76
2024/04/12 12:50:24;;;;;;;15.03;3.80;;;;;;;21.88;52.82;102191.05;2332381;75;50539;-77
2024/04/12 12:53:30;;;;;;;13.15;3.37;;;;;;;21.90;52.83;102190.38;2334309;75;50199;-76
2024/04/12 12:56:31;;;;;;;20.57;4.42;;;;;;;21.90;52.75;102184.16;2330402;74;22413;-77
2024/04/12 12:59:46;;;;;;;12.50;3.83;;;;;;;21.91;52.87;102173.22;2334179;75;51379;-77
2024/04/12 13:02:50;;;;;;;14.03;3.65;;;;;;;21.94;52.71;102170.70;2334853;75;22748;-77
2024/04/12 13:05:52;;;;;;;17.50;3.75;;;;;;;21.94;52.64;102176.92;2289949;75;22453;-77
2024/04/12 13:08:58;;;;;;;17.73;4.08;;;;;;;21.93;52.70;102171.17;2312446;76;22776;-77
2024/04/12 13:11:59;;;;;;;16.17;3.50;;;;;;;21.94;52.73;102174.23;2312218;76;22529;-78
2024/04/12 13:15:01;;;;;;;24.15;4.70;;;;;;;21.96;52.81;102178.08;2307305;76;50681;-77
2024/04/12 13:18:06;;;;;;;24.85;4.10;;;;;;;21.91;53.32;102163.79;2313331;77;51194;-79
2024/04/12 13:21:10;;;;;;;18.73;3.87;;;;;;;21.94;53.38;102165.30;2259060;77;22433;-79
2024/04/12 13:24:13;;;;;;;20.25;4.15;;;;;;;21.97;52.93;102160.92;2313179;75;22490;-79
2024/04/12 13:27:15;;;;;;;27.65;4.45;;;;;;;21.99;53.14;102139.17;2281852;76;22587;-78
2024/04/12 13:30:17;;;;;;;26.55;4.17;;;;;;;21.99;53.06;102143.21;2311935;77;51446;-78
2024/04/12 13:33:19;;;;;;;15.38;4.05;;;;;;;21.97;52.97;102125.88;2311931;77;52065;-78
2024/04/12 13:36:29;;;;;;;12.03;3.42;;;;;;;21.97;52.41;102120.48;2312171;77;52435;-77
2024/04/12 13:39:34;;;;;;;18.85;3.60;;;;;;;21.99;52.48;102120.30;2311074;77;22298;-77
2024/04/12 13:42:39;;;;;;;19.35;4.20;;;;;;;21.94;52.17;102120.33;2283242;76;22476;-79
2024/04/12 13:52:16;;;;;;;20.10;4.28;;;;;;;21.95;52.27;102084.77;2312958;77;22506;-76
2024/04/12 13:55:20;;;;;;;11.93;4.08;;;;;;;21.94;52.50;102078.55;2306842;76;50106;-76
2024/04/12 13:58:22;;;;;;;19.87;4.08;;;;;;;21.94;52.34;102078.55;2307052;77;22424;-78
2024/04/12 14:01:29;;;;;;;18.05;3.85;;;;;;;21.95;52.44;102085.61;2312639;77;50312;-77
2024/04/12 14:04:37;;;;;;;14.25;4.05;;;;;;;21.97;52.38;102082.76;2280930;77;51569;-77
2024/04/12 14:07:35;;;;;;;13.68;4.20;;;;;;;21.98;52.30;102066.08;2312484;76;22469;-77
2024/04/12 14:10:37;;;;;;;15.95;4.40;;;;;;;21.97;52.36;102057.16;2306859;77;50042;-77
2024/04/12 14:13:39;;;;;;;17.37;4.47;;;;;;;21.95;52.47;102057.31;2312209;77;50271;-78
2024/04/12 14:16:41;;;;;;;16.55;5.28;;;;;;;21.95;52.55;102068.09;2311999;77;50355;-79
2024/04/12 14:19:44;;;;;;;16.70;4.80;;;;;;;21.95;52.62;102074.00;2281166;77;50026;-77
2024/04/12 14:22:46;;;;;;;19.37;5.10;;;;;;;21.96;52.60;102066.23;2312662;77;52374;-78
2024/04/12 14:25:48;;;;;;;12.58;4.50;;;;;;;21.93;52.60;102057.15;2312238;77;51430;-77
2024/04/12 14:28:51;;;;;;;14.23;4.47;;;;;;;21.91;52.63;102054.64;2306893;77;51201;-78
2024/04/12 14:31:57;;;;;;;15.75;5.12;;;;;;;21.93;52.58;102047.20;2312489;77;50753;-78
2024/04/12 14:35:00;;;;;;;16.52;5.08;;;;;;;21.94;52.62;102044.86;2312281;77;51455;-79
2024/04/12 14:38:02;;;;;;;14.95;5.20;;;;;;;21.96;52.56;102036.59;2312462;77;50683;-79
2024/04/12 14:41:07;;;;;;;17.12;5.30;;;;;;;21.96;52.57;102029.37;2312459;77;52259;-78
2024/04/12 14:44:08;;;;;;;15.68;5.70;;;;;;;21.95;52.55;102022.79;2280919;76;22908;-78
2024/04/12 14:47:13;;;;;;;14.87;5.30;;;;;;;21.95;52.59;102020.93;2271400;78;50316;-78
2024/04/12 14:50:15;;;;;;;20.57;5.90;;;;;;;21.95;52.63;102022.79;2271709;78;50640;-78
2024/04/12 14:53:17;;;;;;;16.02;5.28;;;;;;;21.94;52.66;102021.95;2223811;78;50096;-79
2024/04/12 14:56:23;;;;;;;13.15;5.53;;;;;;;21.94;52.60;102024.65;2247896;78;50685;-77
2024/04/12 14:59:24;;;;;;;13.00;4.90;;;;;;;21.93;52.68;102020.25;2271500;78;22344;-78
2024/04/12 15:48:51;;;;;;;10.18;4.03;;;;;;;21.92;52.63;102007.80;2271829;78;22299;-77
2024/04/12 15:51:53;;;;;;;11.70;4.60;;;;;;;21.91;52.67;102007.48;2271478;78;51408;-77
2024/04/12 15:55:09;;;;;;;9.15;4.15;;;;;;;21.90;52.63;102005.78;2271393;78;51491;-78
2024/04/12 16:11:19;;;;;;;10.38;3.92;;;;;;;21.90;52.55;101982.87;2271702;78;24278;-78
2024/04/12 16:14:21;;;;;;;9.45;3.62;;;;;;;21.90;52.53;101979.34;2271436;78;50266;-77
2024/04/12 16:17:24;;;;;;;11.50;4.05;;;;;;;21.92;52.47;101967.89;2271270;78;51517;-78
2024/04/12 16:20:29;;;;;;;10.98;3.72;;;;;;;21.92;52.45;101966.55;2224113;78;50742;-77
2024/04/12 16:23:30;;;;;;;6.62;3.65;;;;;;;21.93;52.41;101962.83;2271361;78;22390;-77
2024/04/12 16:26:33;;;;;;;7.22;3.77;;;;;;;21.93;52.39;101978.48;2272912;77;49529;-77
2024/04/12 16:29:40;;;;;;;8.40;3.40;;;;;;;21.91;52.38;101972.45;2248300;78;51357;-78
2024/04/12 16:32:42;;;;;;;8.78;3.98;;;;;;;21.89;52.41;101966.39;2271422;78;50732;-77
2024/04/12 16:35:44;;;;;;;7.60;3.90;;;;;;;21.89;52.38;101959.65;2247702;78;51105;-76
2024/04/12 16:38:46;;;;;;;9.15;3.47;;;;;;;21.91;52.35;101966.19;2273111;77;49625;-78
2024/04/12 16:41:55;;;;;;;7.97;3.67;;;;;;;21.91;52.32;101963.02;2271324;78;50736;-77
2024/04/12 16:44:55;;;;;;;10.00;3.67;;;;;;;21.90;52.27;101964.02;2225439;78;22604;-77
2024/04/12 16:47:59;;;;;;;10.30;3.90;;;;;;;21.90;52.31;101960.48;2311093;77;50302;-77
2024/04/12 16:51:01;;;;;;;8.63;3.42;;;;;;;21.90;52.24;101957.27;2280914;77;51055;-76
2024/04/12 16:54:04;;;;;;;11.03;3.60;;;;;;;21.89;52.26;101951.56;2312231;77;50245;-76
2024/04/12 16:57:06;;;;;;;8.75;3.40;;;;;;;21.90;52.24;101953.75;2256110;77;51523;-77
2024/04/12 17:00:08;;;;;;;6.25;3.42;;;;;;;21.88;52.31;101954.42;2280700;77;50955;-77
2024/04/12 17:03:11;;;;;;;10.00;3.17;;;;;;;21.87;52.28;101952.23;2256088;77;50698;-77
2024/04/12 17:06:13;;;;;;;7.55;3.25;;;;;;;21.87;52.25;101945.50;2306458;76;50241;-77
2024/04/12 17:09:19;;;;;;;10.05;3.95;;;;;;;21.86;52.28;101948.36;2306681;76;50061;-77
2024/04/12 17:12:19;;;;;;;6.33;2.95;;;;;;;21.85;52.30;101939.95;2312137;77;23346;-77
2024/04/12 17:15:22;;;;;;;8.98;3.60;;;;;;;21.83;52.29;101940.62;2280558;77;52343;-77
2024/04/12 17:18:26;;;;;;;6.00;3.27;;;;;;;21.83;52.29;101949.55;2312308;77;51506;-76
2024/04/12 17:21:28;;;;;;;7.60;2.75;;;;;;;21.81;52.29;101948.03;2312245;77;50248;-76
2024/04/12 17:24:30;;;;;;;5.53;3.02;;;;;;;21.81;52.28;101953.42;2306564;76;50043;-76
2024/04/12 17:27:32;;;;;;;5.12;3.00;;;;;;;21.83;52.23;101948.70;2311984;77;51539;-76
2024/04/12 17:30:35;;;;;;;5.15;2.75;;;;;;;21.82;52.25;101949.22;2306658;76;51457;-77
2024/04/12 17:33:37;;;;;;;7.28;2.85;;;;;;;21.80;52.26;101947.20;2312348;77;51546;-78
2024/04/12 17:36:39;;;;;;;7.53;3.27;;;;;;;21.79;52.25;101942.84;2312005;77;51435;-77
2024/04/12 17:39:42;;;;;;;6.33;2.85;;;;;;;21.78;52.27;101949.73;2306610;76;49628;-77
2024/04/12 17:42:45;;;;;;;8.63;3.17;;;;;;;21.77;52.27;101936.77;2306695;77;51532;-77
2024/04/12 17:45:48;;;;;;;4.37;2.70;;;;;;;21.76;52.28;101933.76;2311891;77;51434;-77
2024/04/12 17:48:51;;;;;;;6.28;3.20;;;;;;;21.75;52.26;101933.41;2307000;76;49576;-77
2024/04/12 17:51:54;;;;;;;6.00;2.85;;;;;;;21.78;52.22;101936.27;2312424;77;51482;-76
2024/04/12 17:54:56;;;;;;;5.90;2.75;;;;;;;21.78;52.18;101922.80;2312390;77;51399;-77
2024/04/12 17:57:58;;;;;;;6.53;3.27;;;;;;;21.75;52.21;101923.98;2312167;77;51512;-76
2024/04/12 18:01:02;;;;;;;6.05;3.17;;;;;;;21.76;52.19;101920.29;2306911;76;51468;-77
2024/04/12 18:04:06;;;;;;;5.40;2.80;;;;;;;21.77;52.18;101914.39;2280928;77;51680;-77
2024/04/12 18:07:08;;;;;;;4.78;2.72;;;;;;;21.75;52.18;101924.81;2281303;77;51481;-77
2024/04/12 18:10:12;;;;;;;6.42;3.20;;;;;;;21.74;52.21;101920.97;2312389;77;52252;-77
2024/04/12 18:13:14;;;;;;;8.98;2.67;;;;;;;21.75;52.18;101934.75;2306725;76;50992;-78
2024/04/12 18:16:17;;;;;;;3.70;2.60;;;;;;;21.73;52.23;101931.39;2312198;77;51430;-77
2024/04/12 18:19:24;;;;;;;5.12;2.83;;;;;;;21.73;52.19;101935.43;2312428;77;50257;-77
2024/04/12 18:22:26;;;;;;;5.03;3.17;;;;;;;21.72;52.21;101937.28;2312311;77;51426;-77
2024/04/12 18:25:28;;;;;;;6.67;2.80;;;;;;;21.72;52.23;101939.15;2312090;77;50310;-77
2024/04/12 18:28:30;;;;;;;4.20;2.85;;;;;;;21.70;52.24;101943.34;2281024;77;49525;-77
2024/04/12 18:31:32;;;;;;;4.92;2.62;;;;;;;21.72;52.17;101949.41;2312149;77;50282;-77
2024/04/12 18:34:37;;;;;;;5.17;2.60;;;;;;;21.70;52.24;101950.59;2306747;77;50290;-77
2024/04/12 18:47:38;;;;;;;5.00;2.95;;;;;;;21.69;52.22;101955.15;2290816;77;22247;-77
2024/04/12 18:50:40;;;;;;;6.97;3.27;;;;;;;21.70;52.23;101961.38;2271514;78;51561;-77
2024/04/12 18:53:43;;;;;;;3.77;2.27;;;;;;;21.69;52.25;101955.66;2247908;78;50966;-77
2024/04/12 18:56:45;;;;;;;5.42;2.87;;;;;;;21.68;52.25;101960.70;2271295;78;50294;-77
2024/04/12 18:59:47;;;;;;;5.08;2.90;;;;;;;21.68;52.23;101959.34;2271567;78;50321;-77
2024/04/12 19:02:49;;;;;;;4.25;2.37;;;;;;;21.68;52.23;101960.70;2248074;78;50067;-77
2024/04/12 19:05:51;;;;;;;3.87;2.58;;;;;;;21.68;52.21;101964.73;2223698;78;50735;-76
2024/04/12 19:08:56;;;;;;;4.67;2.50;;;;;;;21.67;52.23;101959.03;2273079;77;51512;-76
2024/04/12 19:11:58;;;;;;;5.47;2.62;;;;;;;21.68;52.22;101965.61;2271806;77;22542;-79
2024/04/12 19:15:03;;;;;;;3.80;2.50;;;;;;;21.67;52.21;101963.91;2271406;78;51652;-76
2024/04/12 19:18:09;;;;;;;4.03;2.60;;;;;;;21.68;52.18;101954.83;2273398;78;50895;-77
2024/04/12 19:21:12;;;;;;;3.27;2.45;;;;;;;21.67;52.20;101957.68;2225012;78;50393;-76
2024/04/12 19:24:14;;;;;;;4.12;2.50;;;;;;;21.68;52.18;101962.05;2271434;78;50243;-77
2024/04/12 19:27:19;;;;;;;2.98;2.30;;;;;;;21.68;52.17;101967.43;2247656;78;49963;-78
2024/04/12 19:30:21;;;;;;;;;;;;;;;21.67;52.19;101961.20;2274367;78;51556;-78
2024/04/12 19:33:24;;;;;;;3.90;2.40;;;;;;;21.64;52.27;101966.95;2271702;78;51415;-77
2024/04/12 19:36:26;;;;;;;4.17;2.33;;;;;;;21.65;52.24;101961.05;2272916;77;51684;-78
2024/04/12 19:39:28;;;;;;;5.12;2.67;;;;;;;21.66;52.20;101963.58;2271456;78;50198;-77
2024/04/12 19:42:30;;;;;;;4.10;2.35;;;;;;;21.66;52.20;101961.40;2273403;77;50586;-77
2024/04/12 19:45:34;;;;;;;2.92;2.17;;;;;;;21.67;52.17;101954.47;2271330;78;50229;-78
2024/04/12 19:48:39;;;;;;;3.70;2.25;;;;;;;21.66;52.17;101959.54;2299735;77;51526;-78
2024/04/12 19:51:40;;;;;;;5.22;2.70;;;;;;;21.65;52.18;101949.76;2312540;77;22275;-77
2024/04/12 19:54:42;;;;;;;2.98;2.27;;;;;;;21.66;52.15;101956.84;2312363;77;50014;-78
2024/04/12 19:57:44;;;;;;;3.85;2.45;;;;;;;21.66;52.16;101950.11;2312223;77;50063;-78
2024/04/12 20:00:46;;;;;;;5.03;2.80;;;;;;;21.67;52.16;101949.59;2306993;76;49513;-78
2024/04/12 20:03:50;;;;;;;2.87;2.22;;;;;;;21.66;52.14;101946.58;2312385;77;50408;-78
2024/04/12 20:06:52;;;;;;;3.83;2.42;;;;;;;21.67;52.12;101954.98;2312159;77;50217;-78
2024/04/12 20:09:54;;;;;;;5.33;2.33;;;;;;;21.65;52.16;101946.23;2312357;77;50321;-76
2024/04/12 20:12:56;;;;;;;3.35;2.22;;;;;;;21.66;52.13;101945.23;2281329;77;51409;-77
2024/04/12 20:16:01;;;;;;;4.55;2.65;;;;;;;21.66;52.17;101945.23;2281103;77;49433;-77
2024/04/12 20:19:03;;;;;;;6.83;2.45;;;;;;;21.65;52.17;101942.19;2312588;77;51442;-76
2024/04/12 20:22:07;;;;;;;3.30;2.35;;;;;;;21.64;52.21;101941.87;2281378;77;50443;-76
2024/04/12 20:25:15;;;;;;;3.00;2.15;;;;;;;21.63;52.20;101942.37;2280641;77;51364;-77
2024/04/12 20:28:13;;;;;;;3.37;2.42;;;;;;;21.64;52.20;101940.01;2282610;76;22231;-77
2024/04/12 20:35:07;;;;;;;3.12;2.15;;;;;;;21.65;52.20;101948.92;2312740;77;22327;-77
2024/04/12 20:37:28;;;;;;;2.98;2.05;;;;;;;21.64;52.20;101945.91;2303298;77;22331;-78
2024/04/12 20:40:30;;;;;;;3.20;1.98;;;;;;;21.63;52.22;101945.55;2306646;76;49311;-76
2024/04/12 20:43:32;;;;;;;2.95;2.10;;;;;;;21.64;52.20;101952.64;2312285;77;50643;-77
2024/04/12 20:46:38;;;;;;;3.67;2.42;;;;;;;21.64;52.16;101945.39;2312161;77;50740;-77
2024/04/12 20:49:41;;;;;;;3.08;2.30;;;;;;;21.64;52.17;101951.30;2256374;77;52526;-78
2024/04/12 20:52:43;;;;;;;2.85;2.35;;;;;;;21.64;52.15;101951.30;2285171;77;51469;-78
2024/04/12 20:55:48;;;;;;;3.67;2.20;;;;;;;21.63;52.13;101950.46;2285015;77;51502;-77
2024/04/12 20:58:50;;;;;;;2.12;1.92;;;;;;;21.64;52.11;101943.22;2285451;77;50761;-76
2024/04/12 21:01:53;;;;;;;3.72;2.20;;;;;;;21.63;52.12;101946.42;2285248;77;52568;-77
2024/04/12 21:04:55;;;;;;;2.58;2.17;;;;;;;21.64;52.15;101947.25;2277558;77;50021;-77
2024/04/12 21:07:59;;;;;;;3.77;2.10;;;;;;;21.64;52.10;101940.52;2285073;77;51892;-77
2024/04/12 21:11:03;;;;;;;3.55;2.17;;;;;;;21.64;52.08;101947.25;2285647;77;22317;-77
2024/04/12 21:14:05;;;;;;;3.70;2.50;;;;;;;21.64;52.10;101943.22;2228314;77;50925;-77
2024/04/12 21:17:09;;;;;;;3.77;2.20;;;;;;;21.63;52.12;101940.16;2277382;77;51474;-76
2024/04/12 21:20:15;;;;;;;3.33;2.30;;;;;;;21.62;52.17;101941.19;2285439;77;22370;-77
2024/04/12 21:23:15;;;;;;;2.83;1.92;;;;;;;21.61;52.16;101932.28;2285268;77;22400;-76
2024/04/12 21:26:25;;;;;;;3.45;2.47;;;;;;;21.62;52.14;101933.11;2285150;77;51489;-76